Time;durP1;ratioP1;P1;durP2;ratioP2;P2;SDS_P1;SDS_P2;PMS_P1;PMS_P2;Temp;Humidity;BMP_temperature;BMP_pressure;BME280_temperature;BME280_humidity;BME280_pressure;Samples;Min_cycle;Max_cycle;Signal;HPM_P1;HPM_P2
2024/02/23 00:02:07;;;;;;;;;;;;;;;;;;5026927;28;19956;-69
2024/02/23 00:04:32;;;;;;;;;;;;;;;;;;5027221;28;19979;-69
2024/02/23 00:06:58;;;;;;;;;;;;;;;;;;5026395;28;19925;-69
2024/02/23 00:09:24;;;;;;;;;;;;;;;;;;5020963;28;19929;-69
2024/02/23 00:11:49;;;;;;;;;;;;;;;;;;5021886;28;19925;-69
2024/02/23 00:14:14;;;;;;;;;;;;;;;;;;5026267;28;20333;-69
2024/02/23 00:16:40;;;;;;;;;;;;;;;;;;5026812;28;19983;-69
2024/02/23 00:19:05;;;;;;;;;;;;;;;;;;5026802;28;20027;-69
2024/02/23 00:21:30;;;;;;;;;;;;;;;;;;5027005;28;19964;-68
2024/02/23 00:23:55;;;;;;;;;;;;;;;;;;5027223;28;20362;-69
2024/02/23 00:26:20;;;;;;;;;;;;;;;;;;5026246;28;19971;-69
2024/02/23 00:28:45;;;;;;;;;;;;;;;;;;5027306;28;19925;-68
2024/02/23 00:31:10;;;;;;;;;;;;;;;;;;5027629;28;19918;-68
2024/02/23 00:33:37;;;;;;;;;;;;;;;;;;5025684;28;19921;-68
2024/02/23 00:36:02;;;;;;;;;;;;;;;;;;5026039;28;20003;-68
2024/02/23 00:38:27;;;;;;;;;;;;;;;;;;5024282;28;20020;-68
2024/02/23 00:40:52;;;;;;;;;;;;;;;;;;5025831;28;19921;-69
2024/02/23 00:43:17;;;;;;;;;;;;;;;;;;5022111;28;19982;-68
2024/02/23 00:45:42;;;;;;;;;;;;;;;;;;5025291;28;20362;-68
2024/02/23 00:48:07;;;;;;;;;;;;;;;;;;5022913;28;19945;-68
2024/02/23 00:50:33;;;;;;;;;;;;;;;;;;5025172;28;19918;-68
2024/02/23 00:52:58;;;;;;;;;;;;;;;;;;5018534;28;19974;-68
2024/02/23 00:55:25;;;;;;;;;;;;;;;;;;5026644;28;19917;-68
2024/02/23 00:57:50;;;;;;;;;;;;;;;;;;5025889;28;19948;-69
2024/02/23 01:00:15;;;;;;;;;;;;;;;;;;5023150;28;19944;-68
2024/02/23 01:02:40;;;;;;;;;;;;;;;;;;5028863;28;19921;-68
2024/02/23 01:05:06;;;;;;;;;;;;;;;;;;5030412;28;19921;-68
2024/02/23 01:07:31;;;;;;;;;;;;;;;;;;5030210;28;19921;-69
2024/02/23 01:09:58;;;;;;;;;;;;;;;;;;5029379;28;19922;-68
2024/02/23 01:12:23;;;;;;;;;;;;;;;;;;5027838;28;19987;-68
2024/02/23 01:14:48;;;;;;;;;;;;;;;;;;5030562;28;20196;-68
2024/02/23 01:17:13;;;;;;;;;;;;;;;;;;5029880;28;19994;-68
2024/02/23 01:19:39;;;;;;;;;;;;;;;;;;5028835;28;19924;-68
2024/02/23 01:22:04;;;;;;;;;;;;;;;;;;5026540;28;20345;-68
2024/02/23 01:24:29;;;;;;;;;;;;;;;;;;5029813;28;20008;-68
2024/02/23 01:26:55;;;;;;;;;;;;;;;;;;5029742;28;19932;-68
2024/02/23 01:29:20;;;;;;;;;;;;;;;;;;5030282;28;19917;-68
2024/02/23 01:31:45;;;;;;;;;;;;;;;;;;5028607;28;19924;-69
2024/02/23 01:34:10;;;;;;;;;;;;;;;;;;5029152;28;20377;-68
2024/02/23 01:36:36;;;;;;;;;;;;;;;;;;5029797;28;20013;-69
2024/02/23 01:39:02;;;;;;;;;;;;;;;;;;5029221;28;19928;-68
2024/02/23 01:41:27;;;;;;;;;;;;;;;;;;5029877;28;19917;-68
2024/02/23 01:43:52;;;;;;;;;;;;;;;;;;5030207;28;19917;-68
2024/02/23 01:46:18;;;;;;;;;;;;;;;;;;5029167;28;19928;-68
2024/02/23 01:48:44;;;;;;;;;;;;;;;;;;5035890;28;19928;-68
2024/02/23 01:51:09;;;;;;;;;;;;;;;;;;5029470;28;19917;-68
2024/02/23 01:53:34;;;;;;;;;;;;;;;;;;5029494;28;20378;-69
2024/02/23 01:55:59;;;;;;;;;;;;;;;;;;5028782;28;19924;-68
2024/02/23 01:58:24;;;;;;;;;;;;;;;;;;5029059;28;19979;-69
2024/02/23 02:00:49;;;;;;;;;;;;;;;;;;5023931;28;20384;-69
2024/02/23 02:03:14;;;;;;;;;;;;;;;;;;5028080;28;19925;-69
2024/02/23 02:05:39;;;;;;;;;;;;;;;;;;5027226;28;20015;-68
2024/02/23 02:08:04;;;;;;;;;;;;;;;;;;5026723;28;19932;-69
2024/02/23 02:10:29;;;;;;;;;;;;;;;;;;5028848;28;19944;-68
2024/02/23 02:12:55;;;;;;;;;;;;;;;;;;5027443;28;20007;-68
2024/02/23 02:15:21;;;;;;;;;;;;;;;;;;5029634;28;20384;-68
2024/02/23 02:17:46;;;;;;;;;;;;;;;;;;5029098;28;19917;-69
2024/02/23 02:20:12;;;;;;;;;;;;;;;;;;5028007;28;19935;-68
2024/02/23 02:22:37;;;;;;;;;;;;;;;;;;5027828;28;19927;-69
2024/02/23 02:25:02;;;;;;;;;;;;;;;;;;5028364;28;19917;-68
2024/02/23 02:27:27;;;;;;;;;;;;;;;;;;5029255;28;19925;-68
2024/02/23 02:29:52;;;;;;;;;;;;;;;;;;5028928;28;20165;-68
2024/02/23 02:32:18;;;;;;;;;;;;;;;;;;5026321;28;19975;-69
2024/02/23 02:34:43;;;;;;;;;;;;;;;;;;5029105;28;19921;-68
2024/02/23 02:37:08;;;;;;;;;;;;;;;;;;5028344;28;19921;-68
2024/02/23 02:39:33;;;;;;;;;;;;;;;;;;5028851;28;19917;-68
2024/02/23 02:41:58;;;;;;;;;;;;;;;;;;5028081;28;20400;-68
2024/02/23 02:44:23;;;;;;;;;;;;;;;;;;5026757;28;20012;-69
2024/02/23 02:46:49;;;;;;;;;;;;;;;;;;5028457;28;19940;-68
2024/02/23 02:49:14;;;;;;;;;;;;;;;;;;5027760;28;20431;-68
2024/02/23 02:51:39;;;;;;;;;;;;;;;;;;5027126;28;20344;-68
2024/02/23 02:54:04;;;;;;;;;;;;;;;;;;5028079;28;19917;-68
2024/02/23 02:56:29;;;;;;;;;;;;;;;;;;5026675;28;19932;-69
2024/02/23 02:58:54;;;;;;;;;;;;;;;;;;5028589;28;19944;-68
2024/02/23 03:01:20;;;;;;;;;;;;;;;;;;5024969;28;19996;-69
2024/02/23 03:03:45;;;;;;;;;;;;;;;;;;5028473;28;20048;-69
2024/02/23 03:06:10;;;;;;;;;;;;;;;;;;5027630;28;19921;-68
2024/02/23 03:08:35;;;;;;;;;;;;;;;;;;5028124;28;19921;-68
2024/02/23 03:11:00;;;;;;;;;;;;;;;;;;5028262;28;19964;-69
2024/02/23 03:13:25;;;;;;;;;;;;;;;;;;5028076;28;19921;-68
2024/02/23 03:15:50;;;;;;;;;;;;;;;;;;5028267;28;19960;-68
2024/02/23 03:18:15;;;;;;;;;;;;;;;;;;5027251;28;19923;-68
2024/02/23 03:20:40;;;;;;;;;;;;;;;;;;5028081;28;20180;-68
2024/02/23 03:23:05;;;;;;;;;;;;;;;;;;5027277;28;20363;-68
2024/02/23 03:25:30;;;;;;;;;;;;;;;;;;5027231;28;19917;-69
2024/02/23 03:27:56;;;;;;;;;;;;;;;;;;5027958;28;20332;-68
2024/02/23 03:30:21;;;;;;;;;;;;;;;;;;5027109;28;19972;-68
2024/02/23 03:32:47;;;;;;;;;;;;;;;;;;5028026;28;19967;-68
2024/02/23 03:35:12;;;;;;;;;;;;;;;;;;5027447;28;20189;-68
2024/02/23 03:37:37;;;;;;;;;;;;;;;;;;5027768;28;19921;-69
2024/02/23 03:40:04;;;;;;;;;;;;;;;;;;5027010;28;20368;-69
2024/02/23 03:42:30;;;;;;;;;;;;;;;;;;5027697;28;20289;-68
2024/02/23 03:44:55;;;;;;;;;;;;;;;;;;5027740;28;20000;-68
2024/02/23 03:47:20;;;;;;;;;;;;;;;;;;5027057;28;20293;-68
2024/02/23 03:49:45;;;;;;;;;;;;;;;;;;5027169;28;20300;-68
2024/02/23 03:52:10;;;;;;;;;;;;;;;;;;5026940;28;19917;-68
2024/02/23 03:54:35;;;;;;;;;;;;;;;;;;5027513;28;19979;-69
2024/02/23 03:57:00;;;;;;;;;;;;;;;;;;5028347;28;20048;-68
2024/02/23 03:59:25;;;;;;;;;;;;;;;;;;5026938;28;20290;-68
2024/02/23 04:01:50;;;;;;;;;;;;;;;;;;5024183;28;19959;-68
2024/02/23 04:04:16;;;;;;;;;;;;;;;;;;5025920;28;20019;-68
2024/02/23 04:06:41;;;;;;;;;;;;;;;;;;5027274;28;19917;-69
2024/02/23 04:09:06;;;;;;;;;;;;;;;;;;5026854;28;19917;-68
2024/02/23 04:11:31;;;;;;;;;;;;;;;;;;5027504;28;19963;-68
2024/02/23 04:13:56;;;;;;;;;;;;;;;;;;5027327;28;19921;-68
2024/02/23 04:16:22;;;;;;;;;;;;;;;;;;5025712;28;19924;-68
2024/02/23 04:18:47;;;;;;;;;;;;;;;;;;5026487;28;19925;-67
2024/02/23 04:21:12;;;;;;;;;;;;;;;;;;5026204;28;19921;-68
2024/02/23 04:23:37;;;;;;;;;;;;;;;;;;5026789;28;20374;-68
2024/02/23 04:26:02;;;;;;;;;;;;;;;;;;5026585;28;20279;-68
2024/02/23 04:28:30;;;;;;;;;;;;;;;;;;5026122;28;19925;-68
2024/02/23 04:30:57;;;;;;;;;;;;;;;;;;5026381;28;22496;-69
2024/02/23 04:33:22;;;;;;;;;;;;;;;;;;5026437;28;20470;-69
2024/02/23 04:35:48;;;;;;;;;;;;;;;;;;5026179;28;20011;-68
2024/02/23 04:38:13;;;;;;;;;;;;;;;;;;5025863;28;19921;-68
2024/02/23 04:40:38;;;;;;;;;;;;;;;;;;5021524;28;20432;-68
2024/02/23 04:43:03;;;;;;;;;;;;;;;;;;5026665;28;19964;-69
2024/02/23 04:45:28;;;;;;;;;;;;;;;;;;5027132;28;20003;-68
2024/02/23 04:47:53;;;;;;;;;;;;;;;;;;5026749;28;20043;-69
2024/02/23 04:50:18;;;;;;;;;;;;;;;;;;5024980;28;19916;-68
2024/02/23 04:52:43;;;;;;;;;;;;;;;;;;5026789;28;20004;-68
2024/02/23 04:55:08;;;;;;;;;;;;;;;;;;5021248;28;19917;-68
2024/02/23 04:57:33;;;;;;;;;;;;;;;;;;5026503;28;20379;-68
2024/02/23 04:59:58;;;;;;;;;;;;;;;;;;5026384;28;19917;-68
2024/02/23 05:02:24;;;;;;;;;;;;;;;;;;5025599;28;20302;-69
2024/02/23 05:04:49;;;;;;;;;;;;;;;;;;5026572;28;19924;-69
2024/02/23 05:07:14;;;;;;;;;;;;;;;;;;5026361;28;20373;-69
2024/02/23 05:09:40;;;;;;;;;;;;;;;;;;5026677;28;20359;-68
2024/02/23 05:12:05;;;;;;;;;;;;;;;;;;5025567;28;19918;-68
2024/02/23 05:14:30;;;;;;;;;;;;;;;;;;5026747;28;20003;-68
2024/02/23 05:16:55;;;;;;;;;;;;;;;;;;5026409;28;19986;-68
2024/02/23 05:19:21;;;;;;;;;;;;;;;;;;5025918;28;19925;-68
2024/02/23 05:21:46;;;;;;;;;;;;;;;;;;5024884;28;20385;-68
2024/02/23 05:24:11;;;;;;;;;;;;;;;;;;5025643;28;19995;-68
2024/02/23 05:26:36;;;;;;;;;;;;;;;;;;5026354;28;19918;-69
2024/02/23 05:29:02;;;;;;;;;;;;;;;;;;5026452;28;19921;-68
2024/02/23 05:31:27;;;;;;;;;;;;;;;;;;5022688;28;19928;-69
2024/02/23 05:33:52;;;;;;;;;;;;;;;;;;5026466;28;20437;-68
2024/02/23 05:36:18;;;;;;;;;;;;;;;;;;5025078;28;20154;-68
2024/02/23 05:38:45;;;;;;;;;;;;;;;;;;5026321;28;20339;-68
2024/02/23 05:41:10;;;;;;;;;;;;;;;;;;5026051;28;19921;-68
2024/02/23 05:43:36;;;;;;;;;;;;;;;;;;5026391;28;19986;-68
2024/02/23 05:46:01;;;;;;;;;;;;;;;;;;5026199;28;20440;-69
2024/02/23 05:48:26;;;;;;;;;;;;;;;;;;5026010;28;20340;-68
2024/02/23 05:50:51;;;;;;;;;;;;;;;;;;5029628;28;19917;-69
2024/02/23 05:53:16;;;;;;;;;;;;;;;;;;5029637;28;20028;-69
2024/02/23 05:55:41;;;;;;;;;;;;;;;;;;5029999;28;20008;-68
2024/02/23 05:58:06;;;;;;;;;;;;;;;;;;5029353;28;19924;-69
2024/02/23 06:00:31;;;;;;;;;;;;;;;;;;5029276;28;20326;-68
2024/02/23 06:02:56;;;;;;;;;;;;;;;;;;5029755;28;19933;-68
2024/02/23 06:05:21;;;;;;;;;;;;;;;;;;5029215;28;19932;-68
2024/02/23 06:07:47;;;;;;;;;;;;;;;;;;5031361;28;19955;-69
2024/02/23 06:10:12;;;;;;;;;;;;;;;;;;5026863;28;19944;-68
2024/02/23 06:12:38;;;;;;;;;;;;;;;;;;5029603;28;20362;-68
2024/02/23 06:15:03;;;;;;;;;;;;;;;;;;5028128;28;20159;-68
2024/02/23 06:17:28;;;;;;;;;;;;;;;;;;5029049;28;19976;-68
2024/02/23 06:19:53;;;;;;;;;;;;;;;;;;5029110;28;20040;-69
2024/02/23 06:22:20;;;;;;;;;;;;;;;;;;5028488;28;20581;-68
2024/02/23 06:24:45;;;;;;;;;;;;;;;;;;5029442;28;19924;-68
2024/02/23 06:27:11;;;;;;;;;;;;;;;;;;5028797;28;19925;-68
2024/02/23 06:29:36;;;;;;;;;;;;;;;;;;5029292;28;19930;-68
2024/02/23 06:32:02;;;;;;;;;;;;;;;;;;5026729;28;19924;-69
2024/02/23 06:34:27;;;;;;;;;;;;;;;;;;5029238;28;20493;-68
2024/02/23 06:36:53;;;;;;;;;;;;;;;;;;5028338;28;20286;-69
2024/02/23 06:39:18;;;;;;;;;;;;;;;;;;5028112;28;19960;-68
2024/02/23 06:41:43;;;;;;;;;;;;;;;;;;5028610;28;19996;-68
2024/02/23 06:44:08;;;;;;;;;;;;;;;;;;5028417;28;19964;-68
2024/02/23 06:46:33;;;;;;;;;;;;;;;;;;5028033;28;20455;-68
2024/02/23 06:48:58;;;;;;;;;;;;;;;;;;5028492;28;19929;-68
2024/02/23 06:51:23;;;;;;;;;;;;;;;;;;5028195;28;19917;-68
2024/02/23 06:53:49;;;;;;;;;;;;;;;;;;5027111;28;19948;-69
2024/02/23 06:56:14;;;;;;;;;;;;;;;;;;5027594;28;19918;-69
2024/02/23 06:58:39;;;;;;;;;;;;;;;;;;5028482;28;20016;-68
2024/02/23 07:01:05;;;;;;;;;;;;;;;;;;5027865;28;20363;-68
2024/02/23 07:03:31;;;;;;;;;;;;;;;;;;5028491;28;20247;-68
2024/02/23 07:05:56;;;;;;;;;;;;;;;;;;5027951;28;19928;-68
2024/02/23 07:08:21;;;;;;;;;;;;;;;;;;5023476;28;19933;-68
2024/02/23 07:10:46;;;;;;;;;;;;;;;;;;5024568;28;19921;-68
2024/02/23 07:13:11;;;;;;;;;;;;;;;;;;5027981;28;20377;-68
2024/02/23 07:15:37;;;;;;;;;;;;;;;;;;5025446;28;20436;-68
2024/02/23 07:18:02;;;;;;;;;;;;;;;;;;5023810;28;19925;-69
2024/02/23 07:20:27;;;;;;;;;;;;;;;;;;5024981;28;20042;-69
2024/02/23 07:22:52;;;;;;;;;;;;;;;;;;5028091;28;19964;-68
2024/02/23 07:25:17;;;;;;;;;;;;;;;;;;5024175;28;20512;-68
2024/02/23 07:27:43;;;;;;;;;;;;;;;;;;5026574;28;19929;-68
2024/02/23 07:30:09;;;;;;;;;;;;;;;;;;5025573;28;20369;-68
2024/02/23 07:32:34;;;;;;;;;;;;;;;;;;5027647;28;19920;-68
2024/02/23 07:34:59;;;;;;;;;;;;;;;;;;5026480;28;20340;-68
2024/02/23 07:37:24;;;;;;;;;;;;;;;;;;5024227;28;19921;-68
2024/02/23 07:39:49;;;;;;;;;;;;;;;;;;5025794;28;20004;-68
2024/02/23 07:42:18;;;;;;;;;;;;;;;;;;5026575;28;19925;-68
2024/02/23 07:44:43;;;;;;;;;;;;;;;;;;5011472;28;19932;-68
2024/02/23 07:47:08;;;;;;;;;;;;;;;;;;5023685;28;19929;-68
2024/02/23 07:49:33;;;;;;;;;;;;;;;;;;5019040;28;19930;-68
2024/02/23 07:51:59;;;;;;;;;;;;;;;;;;5025066;28;20348;-68
2024/02/23 07:54:24;;;;;;;;;;;;;;;;;;5025741;28;22125;-68
2024/02/23 07:56:49;;;;;;;;;;;;;;;;;;5025842;28;19923;-68
2024/02/23 07:59:14;;;;;;;;;;;;;;;;;;5020080;28;19972;-68
2024/02/23 08:01:42;;;;;;;;;;;;;;;;;;5020949;28;20285;-68
2024/02/23 08:04:07;;;;;;;;;;;;;;;;;;5022060;28;19979;-68
2024/02/23 08:06:32;;;;;;;;;;;;;;;;;;5024480;28;20151;-68
2024/02/23 08:08:58;;;;;;;;;;;;;;;;;;5026322;28;20290;-68
2024/02/23 08:11:23;;;;;;;;;;;;;;;;;;5020342;28;19929;-68
2024/02/23 08:13:48;;;;;;;;;;;;;;;;;;5024579;28;19929;-68
2024/02/23 08:16:13;;;;;;;;;;;;;;;;;;5025404;28;20376;-68
2024/02/23 08:18:38;;;;;;;;;;;;;;;;;;5022765;28;19929;-68
2024/02/23 08:21:05;;;;;;;;;;;;;;;;;;5024825;28;19928;-68
2024/02/23 08:23:30;;;;;;;;;;;;;;;;;;5023351;28;20404;-68
2024/02/23 08:26:00;;;;;;;;;;;;;;;;;;5025114;28;19925;-68
2024/02/23 08:28:25;;;;;;;;;;;;;;;;;;5022209;28;19924;-68
2024/02/23 08:30:50;;;;;;;;;;;;;;;;;;5023886;28;19970;-68
2024/02/23 08:33:15;;;;;;;;;;;;;;;;;;5025341;28;19921;-68
2024/02/23 08:35:40;;;;;;;;;;;;;;;;;;5019804;28;20153;-68
2024/02/23 08:38:05;;;;;;;;;;;;;;;;;;5024084;28;19928;-69
2024/02/23 08:40:31;;;;;;;;;;;;;;;;;;5022131;28;20202;-68
2024/02/23 08:42:56;;;;;;;;;;;;;;;;;;5018330;28;19921;-68
2024/02/23 08:45:21;;;;;;;;;;;;;;;;;;5024271;28;19940;-68
2024/02/23 08:47:46;;;;;;;;;;;;;;;;;;5019530;28;19975;-68
2024/02/23 08:50:11;;;;;;;;;;;;;;;;;;5024172;28;20028;-68
2024/02/23 08:52:36;;;;;;;;;;;;;;;;;;5023169;28;20297;-68
2024/02/23 08:55:01;;;;;;;;;;;;;;;;;;5023940;28;21258;-68
2024/02/23 08:57:27;;;;;;;;;;;;;;;;;;5021576;28;20380;-68
2024/02/23 08:59:52;;;;;;;;;;;;;;;;;;5015202;28;19921;-68
2024/02/23 09:02:18;;;;;;;;;;;;;;;;;;5018212;28;19928;-68
2024/02/23 09:04:45;;;;;;;;;;;;;;;;;;5022600;28;19932;-68
2024/02/23 09:07:10;;;;;;;;;;;;;;;;;;5019747;28;20356;-68
2024/02/23 09:09:35;;;;;;;;;;;;;;;;;;5023076;28;19964;-68
2024/02/23 09:12:01;;;;;;;;;;;;;;;;;;5020933;28;19936;-69
2024/02/23 09:14:26;;;;;;;;;;;;;;;;;;5024520;28;19921;-68
2024/02/23 09:16:51;;;;;;;;;;;;;;;;;;5020608;28;19918;-69
2024/02/23 09:19:16;;;;;;;;;;;;;;;;;;5024187;28;19925;-69
2024/02/23 09:21:41;;;;;;;;;;;;;;;;;;5020889;28;19929;-68
2024/02/23 09:24:06;;;;;;;;;;;;;;;;;;5023424;28;19922;-68
2024/02/23 09:26:31;;;;;;;;;;;;;;;;;;5028566;28;19925;-68
2024/02/23 09:28:56;;;;;;;;;;;;;;;;;;5029078;28;19932;-68
2024/02/23 09:31:22;;;;;;;;;;;;;;;;;;5025240;28;19925;-69
2024/02/23 09:33:49;;;;;;;;;;;;;;;;;;5021640;28;19932;-68
2024/02/23 09:36:14;;;;;;;;;;;;;;;;;;5027539;28;20028;-68
2024/02/23 09:38:39;;;;;;;;;;;;;;;;;;5022282;28;20016;-68
2024/02/23 09:41:04;;;;;;;;;;;;;;;;;;5028161;28;19921;-69
2024/02/23 09:43:33;;;;;;;;;;;;;;;;;;5026118;28;20052;-68
2024/02/23 09:45:58;;;;;;;;;;;;;;;;;;5022715;28;20402;-68
2024/02/23 09:48:23;;;;;;;;;;;;;;;;;;5019891;28;19929;-68
2024/02/23 09:50:48;;;;;;;;;;;;;;;;;;5016499;28;19929;-68
2024/02/23 09:53:13;;;;;;;;;;;;;;;;;;5023754;28;19925;-68
2024/02/23 09:55:39;;;;;;;;;;;;;;;;;;5027300;28;19921;-68
2024/02/23 09:58:04;;;;;;;;;;;;;;;;;;5024518;28;20344;-68
2024/02/23 10:00:29;;;;;;;;;;;;;;;;;;5022810;28;19921;-68
2024/02/23 10:02:57;;;;;;;;;;;;;;;;;;5027365;28;19924;-69
2024/02/23 10:05:22;;;;;;;;;;;;;;;;;;5025955;28;19999;-69
2024/02/23 10:07:47;;;;;;;;;;;;;;;;;;5023441;28;20514;-69
2024/02/23 10:10:12;;;;;;;;;;;;;;;;;;5023903;28;20189;-68
2024/02/23 10:12:37;;;;;;;;;;;;;;;;;;5024335;28;20317;-68
2024/02/23 10:15:03;;;;;;;;;;;;;;;;;;5022247;28;19927;-69
2024/02/23 10:17:29;;;;;;;;;;;;;;;;;;5020730;28;19933;-69
2024/02/23 10:19:54;;;;;;;;;;;;;;;;;;5019780;28;19959;-68
2024/02/23 10:22:21;;;;;;;;;;;;;;;;;;5024978;28;19921;-68
2024/02/23 10:24:46;;;;;;;;;;;;;;;;;;5026605;28;19932;-68
2024/02/23 10:27:11;;;;;;;;;;;;;;;;;;5022113;28;19921;-68
2024/02/23 10:29:36;;;;;;;;;;;;;;;;;;5023921;28;19937;-68
2024/02/23 10:32:03;;;;;;;;;;;;;;;;;;5021565;28;20462;-69
2024/02/23 10:34:28;;;;;;;;;;;;;;;;;;5021460;28;19925;-68
2024/02/23 10:36:53;;;;;;;;;;;;;;;;;;5024580;28;20324;-68
2024/02/23 10:39:18;;;;;;;;;;;;;;;;;;5026128;28;20351;-68
2024/02/23 10:41:44;;;;;;;;;;;;;;;;;;5027766;28;19952;-68
2024/02/23 10:44:09;;;;;;;;;;;;;;;;;;5023597;28;19965;-68
2024/02/23 10:46:34;;;;;;;;;;;;;;;;;;5021694;28;20016;-69
2024/02/23 10:48:59;;;;;;;;;;;;;;;;;;5025877;28;19925;-68
2024/02/23 10:51:24;;;;;;;;;;;;;;;;;;5019835;28;20309;-69
2024/02/23 10:53:49;;;;;;;;;;;;;;;;;;5025458;28;20365;-68
2024/02/23 10:56:15;;;;;;;;;;;;;;;;;;5019587;28;20031;-68
2024/02/23 10:58:40;;;;;;;;;;;;;;;;;;5021473;28;20028;-68
2024/02/23 11:01:05;;;;;;;;;;;;;;;;;;5024633;28;19925;-68
2024/02/23 11:03:30;;;;;;;;;;;;;;;;;;5021150;28;19938;-68
2024/02/23 11:05:55;;;;;;;;;;;;;;;;;;5021798;28;19921;-68
2024/02/23 11:08:20;;;;;;;;;;;;;;;;;;5018202;28;19933;-68
2024/02/23 11:10:45;;;;;;;;;;;;;;;;;;5023267;28;19960;-68
2024/02/23 11:13:10;;;;;;;;;;;;;;;;;;5019400;28;20008;-68
2024/02/23 11:15:40;;;;;;;;;;;;;;;;;;5022676;28;20330;-68
2024/02/23 11:18:05;;;;;;;;;;;;;;;;;;5019137;28;20414;-69
2024/02/23 11:20:31;;;;;;;;;;;;;;;;;;5020215;28;20000;-68
2024/02/23 11:22:56;;;;;;;;;;;;;;;;;;5023465;28;19933;-68
2024/02/23 11:25:22;;;;;;;;;;;;;;;;;;5024335;28;19975;-68
2024/02/23 11:27:49;;;;;;;;;;;;;;;;;;5023282;28;19929;-68
2024/02/23 11:30:14;;;;;;;;;;;;;;;;;;5017469;28;19922;-68
2024/02/23 11:32:42;;;;;;;;;;;;;;;;;;5020995;28;19995;-68
2024/02/23 11:35:07;;;;;;;;;;;;;;;;;;5022418;28;19924;-68
2024/02/23 11:37:32;;;;;;;;;;;;;;;;;;5025476;28;20436;-68
2024/02/23 11:39:58;;;;;;;;;;;;;;;;;;5025411;28;19929;-68
2024/02/23 11:42:23;;;;;;;;;;;;;;;;;;5022785;28;19924;-68
2024/02/23 11:44:48;;;;;;;;;;;;;;;;;;5021158;28;20295;-68
2024/02/23 11:47:13;;;;;;;;;;;;;;;;;;5018622;28;19925;-68
2024/02/23 11:49:38;;;;;;;;;;;;;;;;;;5026099;28;19984;-69
2024/02/23 11:52:04;;;;;;;;;;;;;;;;;;5024401;28;19928;-68
2024/02/23 11:54:29;;;;;;;;;;;;;;;;;;5024970;28;20033;-68
2024/02/23 11:56:54;;;;;;;;;;;;;;;;;;5026214;28;20398;-68
2024/02/23 11:59:19;;;;;;;;;;;;;;;;;;5025659;28;20410;-68
2024/02/23 12:01:44;;;;;;;;;;;;;;;;;;5024522;28;19944;-68
2024/02/23 12:04:09;;;;;;;;;;;;;;;;;;5022456;28;20005;-68
2024/02/23 12:06:34;;;;;;;;;;;;;;;;;;5023703;28;19921;-68
2024/02/23 12:08:59;;;;;;;;;;;;;;;;;;5025919;28;20279;-68
2024/02/23 12:11:25;;;;;;;;;;;;;;;;;;5014567;28;19922;-68
2024/02/23 12:13:51;;;;;;;;;;;;;;;;;;5013923;28;20109;-68
2024/02/23 12:16:16;;;;;;;;;;;;;;;;;;5013627;28;19936;-68
2024/02/23 12:18:41;;;;;;;;;;;;;;;;;;5014611;28;19929;-68
2024/02/23 12:21:06;;;;;;;;;;;;;;;;;;5016115;28;19928;-68
2024/02/23 12:23:31;;;;;;;;;;;;;;;;;;5013614;28;20209;-68
2024/02/23 12:25:56;;;;;;;;;;;;;;;;;;5009211;28;19925;-68
2024/02/23 12:28:21;;;;;;;;;;;;;;;;;;5008988;28;20442;-68
2024/02/23 12:30:46;;;;;;;;;;;;;;;;;;5014746;28;19925;-68
2024/02/23 12:33:12;;;;;;;;;;;;;;;;;;5020507;28;19951;-68
2024/02/23 12:35:37;;;;;;;;;;;;;;;;;;5016163;28;19929;-68
2024/02/23 12:38:02;;;;;;;;;;;;;;;;;;5020748;28;19929;-69
2024/02/23 12:40:27;;;;;;;;;;;;;;;;;;5012784;28;19963;-68
2024/02/23 12:42:52;;;;;;;;;;;;;;;;;;5016800;28;19921;-68
2024/02/23 12:45:17;;;;;;;;;;;;;;;;;;5017652;28;20119;-68
2024/02/23 12:47:42;;;;;;;;;;;;;;;;;;5011788;28;20004;-68
2024/02/23 12:50:08;;;;;;;;;;;;;;;;;;5014485;28;19925;-69
2024/02/23 12:52:33;;;;;;;;;;;;;;;;;;5012068;28;19925;-69
2024/02/23 12:54:58;;;;;;;;;;;;;;;;;;5014496;28;20160;-69
2024/02/23 12:57:23;;;;;;;;;;;;;;;;;;5011156;28;20386;-69
2024/02/23 12:59:48;;;;;;;;;;;;;;;;;;5011252;28;20114;-69
2024/02/23 13:02:13;;;;;;;;;;;;;;;;;;5015635;28;20052;-69
2024/02/23 13:04:38;;;;;;;;;;;;;;;;;;5017462;28;19929;-68
2024/02/23 13:07:03;;;;;;;;;;;;;;;;;;5021131;28;19930;-69
2024/02/23 13:09:29;;;;;;;;;;;;;;;;;;5024724;28;20384;-69
2024/02/23 13:11:54;;;;;;;;;;;;;;;;;;5018680;28;19972;-68
2024/02/23 13:14:19;;;;;;;;;;;;;;;;;;5024868;28;19995;-68
2024/02/23 13:16:44;;;;;;;;;;;;;;;;;;5023346;28;20344;-69
2024/02/23 13:19:09;;;;;;;;;;;;;;;;;;5019033;28;19927;-68
2024/02/23 13:21:34;;;;;;;;;;;;;;;;;;5023445;28;19921;-68
2024/02/23 13:23:59;;;;;;;;;;;;;;;;;;5025469;28;19928;-69
2024/02/23 13:26:24;;;;;;;;;;;;;;;;;;5024547;28;19936;-68
2024/02/23 13:28:50;;;;;;;;;;;;;;;;;;5025055;28;20118;-68
2024/02/23 13:31:17;;;;;;;;;;;;;;;;;;5025206;28;19928;-68
2024/02/23 13:33:42;;;;;;;;;;;;;;;;;;5026181;28;20393;-68
2024/02/23 13:36:07;;;;;;;;;;;;;;;;;;5024468;28;19956;-69
2024/02/23 13:38:37;;;;;;;;;;;;;;;;;;5025861;28;19921;-68
2024/02/23 13:41:02;;;;;;;;;;;;;;;;;;5025371;28;19929;-69
2024/02/23 13:43:27;;;;;;;;;;;;;;;;;;5025888;28;19947;-68
2024/02/23 13:45:53;;;;;;;;;;;;;;;;;;5024688;28;20516;-68
2024/02/23 13:48:18;;;;;;;;;;;;;;;;;;5022894;28;19978;-68
2024/02/23 13:50:43;;;;;;;;;;;;;;;;;;5022761;28;20321;-68
2024/02/23 13:53:08;;;;;;;;;;;;;;;;;;5023845;28;20063;-69
2024/02/23 13:55:33;;;;;;;;;;;;;;;;;;5024797;28;19925;-68
2024/02/23 13:57:58;;;;;;;;;;;;;;;;;;5024049;28;19921;-69
2024/02/23 14:00:24;;;;;;;;;;;;;;;;;;5024123;28;20014;-68
2024/02/23 14:02:49;;;;;;;;;;;;;;;;;;5025634;28;19986;-69
2024/02/23 14:05:15;;;;;;;;;;;;;;;;;;5024544;28;19921;-68
2024/02/23 14:07:40;;;;;;;;;;;;;;;;;;5025060;28;20404;-69
2024/02/23 14:10:05;;;;;;;;;;;;;;;;;;5025966;28;20432;-70
2024/02/23 14:12:30;;;;;;;;;;;;;;;;;;5027726;28;19921;-69
2024/02/23 14:14:55;;;;;;;;;;;;;;;;;;5027790;28;19921;-68
2024/02/23 14:17:20;;;;;;;;;;;;;;;;;;5028320;28;19921;-69
2024/02/23 14:19:45;;;;;;;;;;;;;;;;;;5027630;28;20315;-68
2024/02/23 14:22:10;;;;;;;;;;;;;;;;;;5027136;28;19972;-69
2024/02/23 14:24:35;;;;;;;;;;;;;;;;;;5027799;28;19925;-68
2024/02/23 14:27:01;;;;;;;;;;;;;;;;;;5027320;28;19943;-68
2024/02/23 14:29:26;;;;;;;;;;;;;;;;;;5028064;28;19929;-69
2024/02/23 14:31:52;;;;;;;;;;;;;;;;;;5024593;28;19927;-69
2024/02/23 14:34:17;;;;;;;;;;;;;;;;;;5027198;28;19925;-69
2024/02/23 14:36:43;;;;;;;;;;;;;;;;;;5028248;28;19928;-69
2024/02/23 14:39:09;;;;;;;;;;;;;;;;;;5022923;28;20369;-69
2024/02/23 14:41:34;;;;;;;;;;;;;;;;;;5027651;28;19928;-68
2024/02/23 14:43:59;;;;;;;;;;;;;;;;;;5027321;28;20140;-68
2024/02/23 14:46:24;;;;;;;;;;;;;;;;;;5028050;28;20012;-69
2024/02/23 14:48:50;;;;;;;;;;;;;;;;;;5021939;28;20000;-69
2024/02/23 14:51:15;;;;;;;;;;;;;;;;;;5027727;28;19929;-68
2024/02/23 14:53:40;;;;;;;;;;;;;;;;;;5027672;28;19921;-68
2024/02/23 14:56:05;;;;;;;;;;;;;;;;;;5027592;28;19932;-69
2024/02/23 14:58:31;;;;;;;;;;;;;;;;;;5024213;28;19921;-68
2024/02/23 15:00:56;;;;;;;;;;;;;;;;;;5027506;28;19936;-69
2024/02/23 15:03:21;;;;;;;;;;;;;;;;;;5027249;28;19928;-69
2024/02/23 15:05:46;;;;;;;;;;;;;;;;;;5027274;28;19921;-68
2024/02/23 15:08:11;;;;;;;;;;;;;;;;;;5026903;28;19925;-69
2024/02/23 15:10:36;;;;;;;;;;;;;;;;;;5027854;28;19921;-69
2024/02/23 15:13:01;;;;;;;;;;;;;;;;;;5027000;28;19921;-68
2024/02/23 15:15:26;;;;;;;;;;;;;;;;;;5028052;28;19925;-68
2024/02/23 15:17:52;;;;;;;;;;;;;;;;;;5024581;28;20286;-69
2024/02/23 15:20:17;;;;;;;;;;;;;;;;;;5024805;28;19939;-69
2024/02/23 15:22:43;;;;;;;;;;;;;;;;;;5026286;28;19922;-68
2024/02/23 15:25:08;;;;;;;;;;;;;;;;;;5027169;28;20567;-69
2024/02/23 15:27:33;;;;;;;;;;;;;;;;;;5026985;28;19933;-69
2024/02/23 15:29:59;;;;;;;;;;;;;;;;;;5027273;28;20174;-69
2024/02/23 15:32:24;;;;;;;;;;;;;;;;;;5024600;28;19921;-69
2024/02/23 15:34:49;;;;;;;;;;;;;;;;;;5025731;28;19980;-68
2024/02/23 15:37:14;;;;;;;;;;;;;;;;;;5026987;28;19921;-69
2024/02/23 15:39:39;;;;;;;;;;;;;;;;;;5027447;28;20002;-69
2024/02/23 15:42:04;;;;;;;;;;;;;;;;;;5027215;28;19921;-69
2024/02/23 15:44:29;;;;;;;;;;;;;;;;;;5023138;28;20147;-69
2024/02/23 15:46:54;;;;;;;;;;;;;;;;;;5022941;28;19921;-68
2024/02/23 15:49:19;;;;;;;;;;;;;;;;;;5023970;28;19929;-68
2024/02/23 15:51:45;;;;;;;;;;;;;;;;;;5027156;28;20009;-69
2024/02/23 15:54:10;;;;;;;;;;;;;;;;;;5025077;28;20114;-69
2024/02/23 15:56:35;;;;;;;;;;;;;;;;;;5026961;28;19921;-69
2024/02/23 15:59:01;;;;;;;;;;;;;;;;;;5026746;28;20008;-69
2024/02/23 16:01:26;;;;;;;;;;;;;;;;;;5023136;28;20286;-69
2024/02/23 16:03:51;;;;;;;;;;;;;;;;;;5022673;28;20012;-69
2024/02/23 16:06:16;;;;;;;;;;;;;;;;;;5025692;28;19952;-69
2024/02/23 16:08:41;;;;;;;;;;;;;;;;;;5017322;28;20018;-69
2024/02/23 16:11:06;;;;;;;;;;;;;;;;;;5014712;28;19929;-69
2024/02/23 16:13:31;;;;;;;;;;;;;;;;;;5016554;28;19921;-68
2024/02/23 16:15:56;;;;;;;;;;;;;;;;;;5024637;28;19967;-69
2024/02/23 16:18:22;;;;;;;;;;;;;;;;;;5022581;28;19921;-67
2024/02/23 16:20:47;;;;;;;;;;;;;;;;;;5022811;28;19983;-69
2024/02/23 16:23:12;;;;;;;;;;;;;;;;;;5026968;28;20004;-69
2024/02/23 16:25:37;;;;;;;;;;;;;;;;;;5026495;28;20378;-68
2024/02/23 16:28:03;;;;;;;;;;;;;;;;;;5025220;28;19929;-68
2024/02/23 16:30:30;;;;;;;;;;;;;;;;;;5023162;28;20301;-69
2024/02/23 16:32:55;;;;;;;;;;;;;;;;;;5024035;28;19932;-69